Flight Track Log - Related Links

Times and Time Zones

All times are in EST time to prevent confusion due to time zone crossing. See the UAL6129 flight status page for this flight to view local times or setup timezone preferences in your user account.

Time Position Orientation Groundspeed Altitude Reporting Facility
EST Latitude Longitude Course Direction KTS MPH feet Rate Location/Type
Mon 08:36:46 PM 42.0167 -87.9500 347° North 174 200 3,100  Level Chicago TRACON
Mon 08:37:46 PM 42.0500 -88.0000 312° West 210 242 5,100 857 Climbing Chicago TRACON
Mon 08:38:59 PM 42.1289 -88.0442 337° Northwest 236 272 5,000 622 Descending Chicago Center
Mon 08:40:01 PM 42.1944 -88.0503 356° North 239 275 6,500 1,984 Climbing Chicago Center
Mon 08:41:03 PM 42.2711 -88.0439 North 271 312 9,100 2,177 Climbing Chicago Center
Mon 08:42:00 PM 42.4674 -88.2016 347° North  Level Estimated
Mon 08:42:05 PM 42.3447 -88.0367 North 281 323 11,000  Level Chicago Center
Mon 08:43:07 PM 42.4553 -88.0303 North 329 379 12,500 1,645 Climbing Chicago Center
Mon 08:44:09 PM 42.5439 -88.0561 348° North 334 384 14,400 1,610 Climbing Chicago Center
Mon 08:45:10 PM 42.6264 -88.1125 333° Northwest 333 383 15,800 1,366 Climbing Chicago Center
Mon 08:46:12 PM 42.7103 -88.1742 332° Northwest 339 390 17,200 1,355 Climbing Chicago Center
Mon 08:47:14 PM 42.7978 -88.2311 334° Northwest 348 400 18,600 1,306 Climbing Chicago Center
Mon 08:48:16 PM 42.8861 -88.2931 333° Northwest 356 410 19,900 677 Climbing Chicago Center
Mon 08:49:18 PM 42.9792 -88.3583 333° Northwest 372 428 20,000 49 Climbing Chicago Center
Mon 08:50:19 PM 43.0969 -88.4422 333° Northwest 393 452 20,000  Level Chicago Center
Mon 08:51:21 PM 43.1969 -88.5083 334° Northwest 398 458 20,000  Level Chicago Center
Mon 08:52:23 PM 43.2897 -88.5775 332° Northwest 381 438 20,000  Level Chicago Center
Mon 08:53:25 PM 43.3847 -88.6458 332° Northwest 378 435 20,000  Level Chicago Center
Mon 08:54:26 PM 43.4803 -88.7131 333° Northwest 377 434 20,000  Level Chicago Center
Mon 08:55:28 PM 43.5753 -88.7819 332° Northwest 381 438 20,000  Level Chicago Center
Mon 08:56:30 PM 43.6697 -88.8503 332° Northwest 382 440 20,000  Level Chicago Center
Mon 08:57:32 PM 43.7642 -88.9192 332° Northwest 383 441 20,000 -439 Level Chicago Center
Mon 08:58:33 PM 43.8581 -88.9861 333° Northwest 382 440 19,100 -1,317 Descending Chicago Center
Mon 08:59:35 PM 43.9514 -89.0542 332° Northwest 380 437 17,300 -1,984 Descending Chicago Center
Mon 09:00:37 PM 44.0586 -89.1325 332° Northwest 369 425 15,000 -1,597 Descending Chicago Center
Mon 09:01:39 PM 44.1425 -89.1953 332° Northwest 354 407 14,000 -488 Descending Chicago Center
Mon 09:02:40 PM 44.2217 -89.2522 333° Northwest 330 380 14,000 -585 Level Chicago Center
Mon 09:03:42 PM 44.3056 -89.3167 331° Northwest 339 390 12,800 -1,500 Descending Chicago Center
Mon 09:04:44 PM 44.3811 -89.3669 335° Northwest 316 364 10,900 -1,790 Descending Chicago Center
Mon 09:05:46 PM 44.4472 -89.4186 331° Northwest 289 333 9,100 -1,610 Descending Chicago Center
Mon 09:06:47 PM 44.5056 -89.4553 336° Northwest 255 293 7,600 -2,146 Descending Chicago Center
Mon 09:07:49 PM 44.5789 -89.4622 356° North 230 265 4,700 -2,029 Descending Chicago Center
Mon 09:09:03 PM 44.6361 -89.4803 347° North 210 242 3,000 -750 Descending Minneapolis Center
Mon 09:10:05 PM 44.6975 -89.4972 349° North 202 232 3,000  Level Minneapolis Center
Mon 09:11:06 PM 44.7586 -89.5147 349° North 200 230 3,000 -146 Level Minneapolis Center
Mon 09:12:08 PM 44.7894 -89.5511 320° Northwest 161 185 2,700 -290 Descending Minneapolis Center

Login

Don't have an account? Register now (free) for customized features, flight alerts, and more!